createdAt,value
2018-01-21T00:03:26.248Z," 2.82"
2018-01-21T00:08:21.463Z," 3.00"
2018-01-21T00:13:21.090Z," 2.98"
2018-01-21T00:18:20.697Z," 2.89"
2018-01-21T00:23:15.227Z," 2.93"
2018-01-21T00:28:10.879Z," 2.95"
2018-01-21T00:33:12.565Z," 3.03"
2018-01-21T00:38:08.150Z," 3.11"
2018-01-21T00:43:04.558Z," 3.04"
2018-01-21T00:48:03.813Z," 3.22"
2018-01-21T00:53:02.475Z," 3.26"
2018-01-21T00:57:57.226Z," 3.37"
2018-01-21T01:02:52.851Z," 3.37"
2018-01-21T01:07:48.024Z," 3.36"
2018-01-21T01:12:48.418Z," 3.47"
2018-01-21T01:17:47.190Z," 3.55"
2018-01-21T01:22:46.322Z," 3.56"
2018-01-21T01:27:41.190Z," 3.50"
2018-01-21T01:32:37.612Z," 3.55"
2018-01-21T01:37:32.728Z," 3.50"
2018-01-21T01:42:32.701Z," 3.50"
2018-01-21T01:47:28.539Z," 3.47"
2018-01-21T01:52:28.142Z," 3.50"
2018-01-21T01:57:27.288Z," 3.50"
2018-01-21T02:02:23.441Z," 3.55"
2018-01-21T02:07:18.889Z," 3.50"
2018-01-21T02:12:14.656Z," 3.65"
2018-01-21T02:17:15.182Z," 3.60"
2018-01-21T02:22:10.856Z," 3.66"
2018-01-21T02:27:07.348Z," 3.65"
2018-01-21T02:32:07.015Z," 3.65"
2018-01-21T02:37:05.909Z," 3.68"
2018-01-21T02:42:04.741Z," 3.69"
2018-01-21T02:47:03.422Z," 3.69"
2018-01-21T02:52:02.216Z," 3.56"
2018-01-21T02:56:57.876Z," 3.34"
2018-01-21T03:01:57.505Z," 3.22"
2018-01-21T03:06:52.973Z," 3.11"
2018-01-21T03:11:49.328Z," 3.01"
2018-01-21T03:16:48.425Z," 2.82"
2018-01-21T03:21:43.216Z," 2.80"
2018-01-21T03:26:40.450Z," 2.68"
2018-01-21T03:31:36.665Z," 2.57"
2018-01-21T03:36:32.112Z," 2.62"
2018-01-21T03:41:28.635Z," 2.60"
2018-01-21T03:46:28.199Z," 2.61"
2018-01-21T03:51:25.193Z," 2.69"
2018-01-21T03:56:21.459Z," 2.68"
2018-01-21T04:01:20.929Z," 2.54"
2018-01-21T04:06:16.720Z," 2.51"
2018-01-21T04:11:12.683Z," 2.47"
2018-01-21T04:16:13.758Z," 2.44"
2018-01-21T04:21:09.219Z," 2.46"
2018-01-21T04:26:08.178Z," 2.39"
2018-01-21T04:31:03.768Z," 2.31"
2018-01-21T04:36:00.425Z," 2.18"
2018-01-21T04:40:59.604Z," 2.08"
2018-01-21T04:45:54.350Z," 2.17"
2018-01-21T04:50:54.787Z," 2.14"
2018-01-21T04:55:54.334Z," 2.14"
2018-01-21T05:00:49.838Z," 2.02"
2018-01-21T05:05:45.382Z," 2.11"
2018-01-21T05:10:46.062Z," 2.14"
2018-01-21T05:15:44.781Z," 2.18"
2018-01-21T05:20:43.861Z," 2.31"
2018-01-21T05:25:42.586Z," 2.31"
2018-01-21T05:30:37.379Z," 2.15"
2018-01-21T05:35:36.680Z," 2.22"
2018-01-21T05:40:35.355Z," 2.20"
2018-01-21T05:45:33.746Z," 2.04"
2018-01-21T05:50:33.225Z," 1.99"
2018-01-21T05:55:32.981Z," 2.02"
2018-01-21T06:00:28.468Z," 2.07"
2018-01-21T06:05:26.123Z," 1.88"
2018-01-21T06:10:22.057Z," 2.07"
2018-01-21T06:15:18.334Z," 2.06"
2018-01-21T06:20:13.864Z," 1.95"
2018-01-21T06:25:13.706Z," 2.04"
2018-01-21T06:30:12.354Z," 1.95"
2018-01-21T06:35:07.153Z," 2.13"
2018-01-21T06:40:02.507Z," 2.14"
2018-01-21T06:45:02.502Z," 2.20"
2018-01-21T06:49:57.737Z," 2.28"
2018-01-21T06:54:54.367Z," 2.43"
2018-01-21T06:59:51.740Z," 2.44"
2018-01-21T07:04:51.170Z," 2.51"
2018-01-21T07:09:50.634Z," 2.43"
2018-01-21T07:14:45.547Z," 2.49"
2018-01-21T07:19:42.102Z," 2.32"
2018-01-21T07:24:42.534Z," 2.43"
2018-01-21T07:29:41.341Z," 2.28"
2018-01-21T07:34:37.270Z," 2.32"
2018-01-21T07:39:36.827Z," 2.39"
2018-01-21T07:44:32.563Z," 2.39"
2018-01-21T07:49:29.140Z," 2.50"
2018-01-21T07:54:24.642Z," 2.46"
2018-01-21T07:59:21.751Z," 2.65"
2018-01-21T08:04:17.123Z," 2.85"
2018-01-21T08:09:14.073Z," 2.86"
2018-01-21T08:14:14.607Z," 2.89"
2018-01-21T08:19:09.823Z," 3.01"
2018-01-21T08:24:10.520Z," 3.03"
2018-01-21T08:29:05.201Z," 3.01"
2018-01-21T08:34:05.781Z," 3.03"
2018-01-21T08:39:00.668Z," 3.08"
2018-01-21T08:43:57.621Z," 3.23"
2018-01-21T08:48:54.135Z," 3.10"
2018-01-21T08:53:49.625Z," 3.22"
2018-01-21T08:58:45.204Z," 3.31"
2018-01-21T09:03:40.993Z," 3.34"
2018-01-21T09:08:42.673Z," 3.40"
2018-01-21T09:13:41.051Z," 3.28"
2018-01-21T09:18:37.007Z," 3.48"
2018-01-21T09:23:34.276Z," 3.50"
2018-01-21T09:28:30.705Z," 3.50"
2018-01-21T09:33:26.868Z," 3.55"
2018-01-21T09:38:23.555Z," 3.65"
2018-01-21T09:43:19.462Z," 3.70"
2018-01-21T09:48:15.455Z," 3.92"
2018-01-21T09:53:12.288Z," 3.84"
2018-01-21T09:58:12.028Z," 3.84"
2018-01-21T10:03:06.639Z," 4.05"
2018-01-21T10:08:02.389Z," 4.44"
2018-01-21T10:12:58.389Z," 4.63"
2018-01-21T10:17:55.765Z," 4.99"
2018-01-21T10:22:52.257Z," 5.41"
2018-01-21T10:27:53.765Z," 5.65"
2018-01-21T10:32:52.264Z," 5.28"
2018-01-21T10:37:47.228Z," 4.96"
2018-01-21T10:42:44.109Z," 5.10"
2018-01-21T10:47:39.872Z," 5.18"
2018-01-21T10:52:39.844Z," 5.28"
2018-01-21T10:57:35.057Z," 5.33"
2018-01-21T11:02:30.717Z," 5.17"
2018-01-21T11:07:30.926Z," 5.14"
2018-01-21T11:12:26.194Z," 5.14"
2018-01-21T11:17:21.884Z," 5.18"
2018-01-21T11:22:17.435Z," 4.92"
2018-01-21T11:27:14.172Z," 4.90"
2018-01-21T11:32:10.149Z," 4.93"
2018-01-21T11:37:10.595Z," 5.02"
2018-01-21T11:42:06.795Z," 5.05"
2018-01-21T11:47:10.739Z," 5.04"
2018-01-21T11:52:09.606Z," 4.97"
2018-01-21T11:57:09.349Z," 5.08"
2018-01-21T12:02:10.301Z," 4.93"
2018-01-21T12:07:09.770Z," 4.92"
2018-01-21T12:12:08.246Z," 5.07"
2018-01-21T12:17:07.725Z," 5.05"
2018-01-21T12:22:02.538Z," 5.23"
2018-01-21T12:27:02.168Z," 5.21"
2018-01-21T12:32:01.985Z," 5.20"
2018-01-21T12:37:02.966Z," 5.23"
2018-01-21T12:41:57.540Z," 5.23"
2018-01-21T12:46:53.183Z," 5.21"
2018-01-21T12:51:49.749Z," 5.20"
2018-01-21T12:56:49.036Z," 5.21"
2018-01-21T13:01:48.744Z," 5.17"
2018-01-21T13:06:48.480Z," 5.18"
2018-01-21T13:11:44.360Z," 5.33"
2018-01-21T13:16:43.733Z," 5.46"
2018-01-21T13:21:38.714Z," 5.53"
2018-01-21T13:26:34.373Z," 5.54"
2018-01-21T13:31:31.045Z," 5.35"
2018-01-21T13:36:31.275Z," 5.39"
2018-01-21T13:41:29.532Z," 5.32"
2018-01-21T13:46:25.440Z," 5.26"
2018-01-21T13:51:21.703Z," 5.21"
2018-01-21T13:56:17.410Z," 5.18"
2018-01-21T14:01:17.987Z," 5.23"
2018-01-21T14:06:16.721Z," 5.25"
2018-01-21T14:11:15.404Z," 5.39"
2018-01-21T14:16:15.091Z," 5.30"
2018-01-21T14:21:10.352Z," 5.23"
2018-01-21T14:26:10.508Z," 5.25"
2018-01-21T14:31:09.270Z," 5.20"
2018-01-21T14:36:07.845Z," 5.14"
2018-01-21T14:41:02.622Z," 5.25"
2018-01-21T14:45:59.363Z," 5.18"
2018-01-21T14:50:58.638Z," 5.23"
2018-01-21T14:55:54.273Z," 5.05"
2018-01-21T15:00:50.665Z," 4.92"
2018-01-21T15:05:47.024Z," 4.93"
2018-01-21T15:10:47.171Z," 4.70"
2018-01-21T15:15:42.115Z," 4.71"
2018-01-21T15:20:38.936Z," 4.77"
2018-01-21T15:25:39.205Z," 4.70"
2018-01-21T15:30:38.533Z," 4.56"
2018-01-21T15:35:33.025Z," 4.52"
2018-01-21T15:40:29.082Z," 4.50"
2018-01-21T15:45:28.345Z," 4.53"
2018-01-21T15:50:24.305Z," 4.37"
2018-01-21T15:55:19.576Z," 4.41"
2018-01-21T16:00:16.140Z," 4.35"
2018-01-21T16:05:12.307Z," 4.19"
2018-01-21T16:10:07.749Z," 4.19"
2018-01-21T16:15:03.561Z," 4.17"
2018-01-21T16:20:02.910Z," 4.17"
2018-01-21T16:24:58.730Z," 4.20"
2018-01-21T16:29:55.243Z," 4.05"
2018-01-21T16:34:50.670Z," 3.94"
2018-01-21T16:39:48.378Z," 3.86"
2018-01-21T16:44:47.499Z," 3.86"
2018-01-21T16:49:47.164Z," 3.88"
2018-01-21T16:54:47.287Z," 3.66"
2018-01-21T16:59:46.409Z," 3.60"
2018-01-21T17:04:44.882Z," 3.44"
2018-01-21T17:09:44.333Z," 3.29"
2018-01-21T17:14:39.779Z," 3.19"
2018-01-21T17:19:35.397Z," 3.08"
2018-01-21T17:24:35.870Z," 2.97"
2018-01-21T17:29:35.634Z," 2.95"
2018-01-21T17:34:34.377Z," 3.04"
2018-01-21T17:39:30.144Z," 3.07"
2018-01-21T17:44:31.424Z," 3.07"
2018-01-21T17:49:29.718Z," 3.11"
2018-01-21T17:54:30.531Z," 3.11"
2018-01-21T17:59:29.836Z," 3.03"
2018-01-21T18:04:29.328Z," 2.93"
2018-01-21T18:09:29.535Z," 2.93"
2018-01-21T18:14:28.054Z," 2.95"
2018-01-21T18:19:27.767Z," 2.83"
2018-01-21T18:24:22.200Z," 2.95"
2018-01-21T18:29:17.890Z," 2.98"
2018-01-21T18:34:17.363Z," 3.00"
2018-01-21T18:39:12.425Z," 3.00"
2018-01-21T18:44:11.960Z," 3.00"
2018-01-21T18:49:07.482Z," 2.95"
2018-01-21T18:54:02.932Z," 2.92"
2018-01-21T18:58:58.484Z," 2.97"
2018-01-21T19:03:55.984Z," 2.97"
2018-01-21T19:08:52.407Z," 2.90"
2018-01-21T19:13:53.536Z," 2.95"
2018-01-21T19:18:51.907Z," 2.90"
2018-01-21T19:23:50.600Z," 2.93"
2018-01-21T19:28:49.906Z," 3.00"
2018-01-21T19:33:48.597Z," 3.00"
2018-01-21T19:38:47.355Z," 2.85"
2018-01-21T19:48:43.440Z," 2.90"
2018-01-21T19:53:43.234Z," 2.86"
2018-01-21T19:58:41.900Z," 2.80"
2018-01-21T20:03:40.908Z," 2.83"
2018-01-21T20:08:41.600Z," 2.82"
2018-01-21T20:13:39.958Z," 2.85"
2018-01-21T20:18:38.620Z," 2.83"
2018-01-21T20:23:39.316Z," 2.80"
2018-01-21T20:28:34.803Z," 2.95"
2018-01-21T20:33:35.328Z," 2.90"
2018-01-21T20:38:30.017Z," 2.82"
2018-01-21T20:43:27.584Z," 2.89"
2018-01-21T20:48:27.750Z," 3.08"
2018-01-21T20:53:23.636Z," 2.90"
2018-01-21T20:58:22.759Z," 2.97"
2018-01-21T21:03:17.892Z," 3.00"
2018-01-21T21:08:17.561Z," 2.93"
2018-01-21T21:13:16.100Z," 2.95"
2018-01-21T21:18:10.591Z," 2.92"
2018-01-21T21:23:10.140Z," 2.92"
2018-01-21T21:28:04.764Z," 2.90"
2018-01-21T21:33:00.386Z," 2.92"
2018-01-21T21:38:00.321Z," 2.97"
2018-01-21T21:43:00.040Z," 2.92"
2018-01-21T21:48:00.671Z," 2.92"
2018-01-21T21:52:59.750Z," 3.01"
2018-01-21T21:57:55.113Z," 2.87"
2018-01-21T22:02:54.537Z," 2.87"
2018-01-21T22:07:49.194Z," 3.00"
2018-01-21T22:12:48.865Z," 2.82"
2018-01-21T22:17:48.093Z," 2.80"
2018-01-21T22:22:43.016Z," 2.89"
2018-01-21T22:27:42.285Z," 2.89"
2018-01-21T22:32:38.402Z," 2.79"
2018-01-21T22:37:35.013Z," 2.85"
2018-01-21T22:42:35.067Z," 2.83"
2018-01-21T22:47:34.659Z," 2.86"
2018-01-21T22:52:33.180Z," 2.83"
2018-01-21T22:57:32.835Z," 2.93"
2018-01-21T23:02:27.279Z," 2.98"
2018-01-21T23:07:23.050Z," 3.08"
2018-01-21T23:12:22.627Z," 3.18"
2018-01-21T23:17:21.295Z," 3.31"
2018-01-21T23:22:16.246Z," 3.16"
2018-01-21T23:27:16.955Z," 3.11"
2018-01-21T23:32:12.617Z," 3.25"
2018-01-21T23:37:11.957Z," 3.32"
2018-01-21T23:42:10.832Z," 3.23"
2018-01-21T23:47:05.884Z," 3.40"
2018-01-21T23:52:05.228Z," 3.31"
2018-01-21T23:57:00.023Z," 3.40"
